createdAt,value
2017-10-10T00:00:22.655Z,0.00
2017-10-10T00:01:22.652Z,0.00
2017-10-10T00:02:22.650Z,0.00
2017-10-10T00:03:22.648Z,0.00
2017-10-10T00:04:22.645Z,0.00
2017-10-10T00:05:22.647Z,0.00
2017-10-10T00:06:22.642Z,0.00
2017-10-10T00:07:22.640Z,0.00
2017-10-10T00:08:22.637Z,0.00
2017-10-10T00:09:22.632Z,0.00
2017-10-10T00:10:22.631Z,0.00
2017-10-10T00:11:22.627Z,0.00
2017-10-10T00:12:22.623Z,0.00
2017-10-10T00:13:22.617Z,0.00
2017-10-10T00:14:22.613Z,0.00
2017-10-10T00:15:22.619Z,0.00
2017-10-10T00:16:22.608Z,0.00
2017-10-10T00:17:22.610Z,0.00
2017-10-10T00:18:22.605Z,0.00
2017-10-10T00:19:22.602Z,0.00
2017-10-10T00:20:22.602Z,0.00
2017-10-10T00:21:22.593Z,0.00
2017-10-10T00:22:22.589Z,0.00
2017-10-10T00:23:22.586Z,0.00
2017-10-10T00:24:22.582Z,0.00
2017-10-10T00:25:22.581Z,0.00
2017-10-10T00:26:22.580Z,0.00
2017-10-10T00:27:22.574Z,0.00
2017-10-10T00:28:22.572Z,0.00
2017-10-10T00:29:22.572Z,0.00
2017-10-10T00:30:22.569Z,0.00
2017-10-10T00:31:22.567Z,0.00
2017-10-10T00:32:22.562Z,0.00
2017-10-10T00:33:22.560Z,0.00
2017-10-10T00:34:22.556Z,0.00
2017-10-10T00:35:22.556Z,0.00
2017-10-10T00:36:22.564Z,0.00
2017-10-10T00:37:22.544Z,0.00
2017-10-10T00:38:22.542Z,0.00
2017-10-10T00:39:22.537Z,0.00
2017-10-10T00:40:22.534Z,0.00
2017-10-10T00:41:22.530Z,0.00
2017-10-10T00:42:22.528Z,0.00
2017-10-10T00:43:22.526Z,0.00
2017-10-10T00:44:22.522Z,0.00
2017-10-10T00:45:22.523Z,0.00
2017-10-10T00:46:22.537Z,0.00
2017-10-10T00:47:22.517Z,0.00
2017-10-10T00:48:22.515Z,0.00
2017-10-10T00:49:22.511Z,0.00
2017-10-10T00:50:22.508Z,0.00
2017-10-10T00:51:22.505Z,0.00
2017-10-10T00:52:22.500Z,0.00
2017-10-10T00:53:22.494Z,0.00
2017-10-10T00:54:22.492Z,0.00
2017-10-10T00:55:22.489Z,0.00
2017-10-10T00:56:22.486Z,0.00
2017-10-10T00:57:22.484Z,0.00
2017-10-10T00:58:22.478Z,0.00
2017-10-10T00:59:22.476Z,0.00
2017-10-10T01:00:22.472Z,0.00
2017-10-10T01:01:22.473Z,0.00
2017-10-10T01:02:22.470Z,0.00
2017-10-10T01:03:22.466Z,0.00
2017-10-10T01:04:22.463Z,0.00
2017-10-10T01:05:22.461Z,0.00
2017-10-10T01:06:22.458Z,0.00
2017-10-10T01:07:22.456Z,0.00
2017-10-10T01:08:22.452Z,0.00
2017-10-10T01:09:22.444Z,0.00
2017-10-10T01:10:22.444Z,0.00
2017-10-10T01:11:22.439Z,0.00
2017-10-10T01:12:22.434Z,0.00
2017-10-10T01:13:22.432Z,0.00
2017-10-10T01:14:22.430Z,0.00
2017-10-10T01:15:22.425Z,0.00
2017-10-10T01:16:22.422Z,0.00
2017-10-10T01:17:22.425Z,0.00
2017-10-10T01:18:22.421Z,0.00
2017-10-10T01:19:22.418Z,0.00
2017-10-10T01:20:22.413Z,0.00
2017-10-10T01:21:22.406Z,0.00
2017-10-10T01:22:22.405Z,0.00
2017-10-10T01:23:22.401Z,0.00
2017-10-10T01:24:22.396Z,0.00
2017-10-10T01:25:22.399Z,0.00
2017-10-10T01:26:22.396Z,0.00
2017-10-10T01:27:22.393Z,0.00
2017-10-10T01:28:22.388Z,0.00
2017-10-10T01:29:22.386Z,0.00
2017-10-10T01:30:22.381Z,0.00
2017-10-10T01:31:22.378Z,0.00
2017-10-10T01:32:22.376Z,0.00
2017-10-10T01:33:22.369Z,0.00
2017-10-10T01:34:22.365Z,0.00
2017-10-10T01:35:22.362Z,0.00
2017-10-10T01:36:22.359Z,0.00
2017-10-10T01:37:22.355Z,0.00
2017-10-10T01:38:22.353Z,0.00
2017-10-10T01:39:22.351Z,0.00
2017-10-10T01:40:22.346Z,0.00
2017-10-10T01:41:22.347Z,0.00
2017-10-10T01:42:22.344Z,0.00
2017-10-10T01:43:22.345Z,0.00
2017-10-10T01:44:22.337Z,0.00
2017-10-10T01:45:22.333Z,0.00
2017-10-10T01:46:22.334Z,0.00
2017-10-10T01:47:22.328Z,0.00
2017-10-10T01:48:22.323Z,0.00
2017-10-10T01:49:22.317Z,0.00
2017-10-10T01:50:22.313Z,0.00
2017-10-10T01:51:22.310Z,0.00
2017-10-10T01:52:22.307Z,0.00
2017-10-10T01:53:22.303Z,0.00
2017-10-10T01:54:22.300Z,0.00
2017-10-10T01:55:22.302Z,0.00
2017-10-10T01:56:22.292Z,0.00
2017-10-10T01:57:22.294Z,0.00
2017-10-10T01:58:22.292Z,0.00
2017-10-10T01:59:22.288Z,0.00
2017-10-10T02:00:22.283Z,0.00
2017-10-10T02:01:22.279Z,0.00
2017-10-10T02:02:22.277Z,0.00
2017-10-10T02:03:22.273Z,0.00
2017-10-10T02:04:22.269Z,0.00
2017-10-10T02:05:22.265Z,0.00
2017-10-10T02:06:22.259Z,0.00
2017-10-10T02:07:22.256Z,0.00
2017-10-10T02:08:22.251Z,0.00
2017-10-10T02:09:22.247Z,0.00
2017-10-10T02:10:22.246Z,0.00
2017-10-10T02:11:22.242Z,0.00
2017-10-10T02:12:22.238Z,0.00
2017-10-10T02:13:22.239Z,0.00
2017-10-10T02:14:22.236Z,0.00
2017-10-10T02:15:22.232Z,0.00
2017-10-10T02:16:22.229Z,0.00
2017-10-10T02:17:22.228Z,0.00
2017-10-10T02:18:22.222Z,0.00
2017-10-10T02:19:22.221Z,0.00
2017-10-10T02:20:22.214Z,0.00
2017-10-10T02:21:22.212Z,0.00
2017-10-10T02:22:22.209Z,0.00
2017-10-10T02:23:22.202Z,0.00
2017-10-10T02:24:22.197Z,0.00
2017-10-10T02:25:22.199Z,0.00
2017-10-10T02:26:22.196Z,0.00
2017-10-10T02:27:22.192Z,0.00
2017-10-10T02:28:22.188Z,0.00
2017-10-10T02:29:22.180Z,0.00
2017-10-10T02:30:22.178Z,0.00
2017-10-10T02:31:22.175Z,0.00
2017-10-10T02:32:22.171Z,0.00
2017-10-10T02:33:22.168Z,0.00
2017-10-10T02:34:22.163Z,0.00
2017-10-10T02:35:22.164Z,0.00
2017-10-10T02:36:22.158Z,0.00
2017-10-10T02:37:22.158Z,0.00
2017-10-10T02:38:22.157Z,0.00
2017-10-10T02:39:22.154Z,0.00
2017-10-10T02:40:22.151Z,0.00
2017-10-10T02:41:22.146Z,0.00
2017-10-10T02:42:22.145Z,0.00
2017-10-10T02:43:22.140Z,0.00
2017-10-10T02:44:22.137Z,0.00
2017-10-10T02:45:22.130Z,0.00
2017-10-10T02:46:22.130Z,0.00
2017-10-10T02:47:22.126Z,0.00
2017-10-10T02:48:22.117Z,0.00
2017-10-10T02:49:22.117Z,0.00
2017-10-10T02:50:22.115Z,0.00
2017-10-10T02:51:22.109Z,0.00
2017-10-10T02:52:22.108Z,0.00
2017-10-10T02:53:22.106Z,0.00
2017-10-10T02:54:22.105Z,0.00
2017-10-10T02:55:22.101Z,0.00
2017-10-10T02:56:22.098Z,0.00
2017-10-10T02:57:22.095Z,0.00
2017-10-10T02:58:22.092Z,0.00
2017-10-10T02:59:22.088Z,0.00
2017-10-10T03:00:22.084Z,0.00
2017-10-10T03:01:22.080Z,0.00
2017-10-10T03:02:22.074Z,0.00
2017-10-10T03:03:22.071Z,0.00
2017-10-10T03:04:22.067Z,0.00
2017-10-10T03:05:22.065Z,0.00
2017-10-10T03:06:22.063Z,0.00
2017-10-10T03:07:22.057Z,0.00
2017-10-10T03:08:22.055Z,0.00
2017-10-10T03:09:22.056Z,0.00
2017-10-10T03:10:22.056Z,0.00
2017-10-10T03:11:22.049Z,0.00
2017-10-10T03:12:22.046Z,0.00
2017-10-10T03:13:22.043Z,0.00
2017-10-10T03:14:22.044Z,0.00
2017-10-10T03:15:22.037Z,0.00
2017-10-10T03:16:22.034Z,0.00
2017-10-10T03:17:22.026Z,0.00
2017-10-10T03:18:22.023Z,0.00
2017-10-10T03:19:22.021Z,0.00
2017-10-10T03:20:22.017Z,0.00
2017-10-10T03:21:22.014Z,0.00
2017-10-10T03:22:22.012Z,0.00
2017-10-10T03:23:22.009Z,0.00
2017-10-10T03:24:22.005Z,0.00
2017-10-10T03:25:22.006Z,0.00
2017-10-10T03:26:22.003Z,0.00
2017-10-10T03:27:22.000Z,0.00
2017-10-10T03:28:21.997Z,0.00
2017-10-10T03:29:21.994Z,0.00
2017-10-10T03:30:21.991Z,0.00
2017-10-10T03:31:21.987Z,0.00
2017-10-10T03:32:21.983Z,0.00
2017-10-10T03:33:21.976Z,0.00
2017-10-10T03:34:21.974Z,0.00
2017-10-10T03:35:21.971Z,0.00
2017-10-10T03:36:21.968Z,0.00
2017-10-10T03:37:21.963Z,0.00
2017-10-10T03:38:21.962Z,0.00
2017-10-10T03:39:21.958Z,0.00
2017-10-10T03:40:21.955Z,0.00
2017-10-10T03:41:21.956Z,0.00
2017-10-10T03:42:21.953Z,0.00
2017-10-10T03:43:21.965Z,0.00
2017-10-10T03:44:21.947Z,0.00
2017-10-10T03:45:21.944Z,0.00
2017-10-10T03:46:21.941Z,0.00
2017-10-10T03:47:21.938Z,0.00
2017-10-10T03:48:21.935Z,0.00
2017-10-10T03:49:21.928Z,0.00
2017-10-10T03:50:21.925Z,0.00
2017-10-10T03:51:21.922Z,0.00
2017-10-10T03:52:21.917Z,0.00
2017-10-10T03:53:21.915Z,0.00
2017-10-10T03:54:21.912Z,0.00
2017-10-10T03:55:21.910Z,0.00
2017-10-10T03:56:21.906Z,0.00
2017-10-10T03:57:21.908Z,0.00
2017-10-10T03:58:21.905Z,0.00
2017-10-10T03:59:21.905Z,0.00
2017-10-10T04:00:21.897Z,0.00
2017-10-10T04:01:21.894Z,0.00
2017-10-10T04:02:21.893Z,0.00
2017-10-10T04:03:21.889Z,0.00
2017-10-10T04:04:21.889Z,0.00
2017-10-10T04:05:21.880Z,0.00
2017-10-10T04:06:21.876Z,0.00
2017-10-10T04:07:21.875Z,0.00
2017-10-10T04:08:21.868Z,0.00
2017-10-10T04:09:21.866Z,0.00
2017-10-10T04:10:21.865Z,0.00
2017-10-10T04:11:21.860Z,0.00
2017-10-10T04:12:21.856Z,0.00
2017-10-10T04:13:21.858Z,0.00
2017-10-10T04:14:21.856Z,0.00
2017-10-10T04:15:21.852Z,0.00
2017-10-10T04:16:21.850Z,0.00
2017-10-10T04:17:21.847Z,0.00
2017-10-10T04:18:21.845Z,0.00
2017-10-10T04:19:21.843Z,0.00
2017-10-10T04:20:21.836Z,0.00
2017-10-10T04:21:21.831Z,0.00
2017-10-10T04:22:21.827Z,0.00
2017-10-10T04:23:21.823Z,0.00
2017-10-10T04:24:21.821Z,0.00
2017-10-10T04:25:21.818Z,0.00
2017-10-10T04:26:21.814Z,0.00
2017-10-10T04:27:21.813Z,0.00
2017-10-10T04:28:21.806Z,0.00
2017-10-10T04:29:21.813Z,0.00
2017-10-10T04:30:21.809Z,0.00
2017-10-10T04:31:21.805Z,0.00
2017-10-10T04:32:21.816Z,0.00
2017-10-10T04:33:21.793Z,0.00
2017-10-10T04:34:21.789Z,0.00
2017-10-10T04:35:21.788Z,0.00
2017-10-10T04:36:21.787Z,0.00
2017-10-10T04:37:21.785Z,0.00
2017-10-10T04:38:21.783Z,0.00
2017-10-10T04:39:21.779Z,0.00
2017-10-10T04:40:21.776Z,0.00
2017-10-10T04:41:21.773Z,0.00
2017-10-10T04:42:21.773Z,0.00
2017-10-10T04:43:21.767Z,0.00
2017-10-10T04:44:21.764Z,0.00
2017-10-10T04:45:21.756Z,0.00
2017-10-10T04:46:21.754Z,0.00
2017-10-10T04:47:21.750Z,0.00
2017-10-10T04:48:21.748Z,0.00
2017-10-10T04:49:21.743Z,0.00
2017-10-10T04:50:21.740Z,0.00
2017-10-10T04:51:21.739Z,0.00
2017-10-10T04:52:21.735Z,0.00
2017-10-10T04:53:21.736Z,0.00
2017-10-10T04:54:21.732Z,0.00
2017-10-10T04:55:21.729Z,0.00
2017-10-10T04:56:21.732Z,0.00
2017-10-10T04:57:21.723Z,0.00
2017-10-10T04:58:21.722Z,0.00
2017-10-10T04:59:21.718Z,0.00
2017-10-10T05:00:21.714Z,0.00
2017-10-10T05:01:21.706Z,0.00
2017-10-10T05:02:21.703Z,0.00
2017-10-10T05:03:21.701Z,0.00
2017-10-10T05:04:21.697Z,0.00
2017-10-10T05:05:21.694Z,0.00
2017-10-10T05:06:21.693Z,0.00
2017-10-10T05:07:21.688Z,0.00
2017-10-10T05:08:21.687Z,0.00
2017-10-10T05:09:21.688Z,0.00
2017-10-10T05:10:21.680Z,0.00
2017-10-10T05:11:21.683Z,0.00
2017-10-10T05:12:21.675Z,0.00
2017-10-10T05:13:21.673Z,0.00
2017-10-10T05:14:21.668Z,0.00
2017-10-10T05:15:21.666Z,0.00
2017-10-10T05:16:21.663Z,0.00
2017-10-10T05:17:21.656Z,0.00
2017-10-10T05:18:21.653Z,0.00
2017-10-10T05:19:21.648Z,0.00
2017-10-10T05:20:21.645Z,0.00
2017-10-10T05:21:21.648Z,0.00
2017-10-10T05:22:21.639Z,0.00
2017-10-10T05:23:21.636Z,0.00
2017-10-10T05:24:21.632Z,0.00
2017-10-10T05:25:21.631Z,0.00
2017-10-10T05:26:21.630Z,4.00
2017-10-10T05:27:21.627Z,4.00
2017-10-10T05:28:21.623Z,4.00
2017-10-10T05:29:21.619Z,4.00
2017-10-10T05:30:21.615Z,4.00
2017-10-10T05:31:21.612Z,4.00
2017-10-10T05:32:21.609Z,4.00
2017-10-10T05:33:21.600Z,8.00
2017-10-10T05:34:21.599Z,8.00
2017-10-10T05:35:21.595Z,8.00
2017-10-10T05:36:21.591Z,8.00
2017-10-10T05:37:21.593Z,8.00
2017-10-10T05:38:21.591Z,8.00
2017-10-10T05:39:21.590Z,12.00
2017-10-10T05:40:21.581Z,12.00
2017-10-10T05:41:21.576Z,12.00
2017-10-10T05:42:21.572Z,16.00
2017-10-10T05:43:21.569Z,16.00
2017-10-10T05:44:21.564Z,16.00
2017-10-10T05:45:21.561Z,16.00
2017-10-10T05:46:21.559Z,24.00
2017-10-10T05:47:21.558Z,20.00
2017-10-10T05:48:21.552Z,24.00
2017-10-10T05:49:21.558Z,32.00
2017-10-10T05:50:21.550Z,32.00
2017-10-10T05:51:21.552Z,36.00
2017-10-10T05:52:21.543Z,36.00
2017-10-10T05:53:21.540Z,44.00
2017-10-10T05:54:21.536Z,44.00
2017-10-10T05:55:21.534Z,48.00
2017-10-10T05:56:21.530Z,44.00
2017-10-10T05:57:21.523Z,48.00
2017-10-10T05:58:21.519Z,56.00
2017-10-10T05:59:21.517Z,68.00
2017-10-10T06:00:21.513Z,64.00
2017-10-10T06:01:21.510Z,72.00
2017-10-10T06:02:21.511Z,72.00
2017-10-10T06:03:21.504Z,88.00
2017-10-10T06:04:21.499Z,96.00
2017-10-10T06:05:21.501Z,92.00
2017-10-10T06:06:21.498Z,112.00
2017-10-10T06:07:21.495Z,116.00
2017-10-10T06:08:21.490Z,132.00
2017-10-10T06:09:21.487Z,144.00
2017-10-10T06:10:21.484Z,132.00
2017-10-10T06:11:21.482Z,140.00
2017-10-10T06:12:21.478Z,128.00
2017-10-10T06:13:21.470Z,148.00
2017-10-10T06:14:21.468Z,156.00
2017-10-10T06:15:21.464Z,180.00
2017-10-10T06:16:21.460Z,188.00
2017-10-10T06:17:21.459Z,156.00
2017-10-10T06:18:21.453Z,140.00
2017-10-10T06:19:21.451Z,132.00
2017-10-10T06:20:21.447Z,128.00
2017-10-10T06:21:21.448Z,116.00
2017-10-10T06:22:21.445Z,124.00
2017-10-10T06:23:21.442Z,140.00
2017-10-10T06:24:21.439Z,160.00
2017-10-10T06:25:21.435Z,172.00
2017-10-10T06:26:21.432Z,208.00
2017-10-10T06:27:21.430Z,236.00
2017-10-10T06:28:21.426Z,256.00
2017-10-10T06:29:21.419Z,264.00
2017-10-10T06:30:21.415Z,260.00
2017-10-10T06:31:21.415Z,268.00
2017-10-10T06:32:21.408Z,292.00
2017-10-10T06:33:21.408Z,316.00
2017-10-10T06:34:21.404Z,352.00
2017-10-10T06:35:21.407Z,380.00
2017-10-10T06:36:21.396Z,440.00
2017-10-10T06:37:21.397Z,508.00
2017-10-10T06:38:21.395Z,556.00
2017-10-10T06:39:21.393Z,568.00
2017-10-10T06:40:21.388Z,468.00
2017-10-10T06:41:21.382Z,416.00
2017-10-10T06:42:21.378Z,428.00
2017-10-10T06:43:21.375Z,376.00
2017-10-10T06:44:21.372Z,356.00
2017-10-10T06:45:21.373Z,328.00
2017-10-10T06:46:21.370Z,332.00
2017-10-10T06:47:21.366Z,324.00
2017-10-10T06:48:21.362Z,272.00
2017-10-10T06:49:21.360Z,296.00
2017-10-10T06:50:21.357Z,260.00
2017-10-10T06:51:21.355Z,232.00
2017-10-10T06:52:21.364Z,244.00
2017-10-10T06:53:21.345Z,216.00
2017-10-10T06:54:21.340Z,256.00
2017-10-10T06:55:21.340Z,264.00
2017-10-10T06:56:21.335Z,260.00
2017-10-10T06:57:21.339Z,272.00
2017-10-10T06:58:21.329Z,228.00
2017-10-10T06:59:21.333Z,220.00
2017-10-10T07:00:21.323Z,292.00
2017-10-10T07:01:21.324Z,320.00
2017-10-10T07:02:21.328Z,392.00
2017-10-10T07:03:21.320Z,408.00
2017-10-10T07:04:21.316Z,520.00
2017-10-10T07:05:21.313Z,484.00
2017-10-10T07:06:21.311Z,520.00
2017-10-10T07:07:21.317Z,496.00
2017-10-10T07:08:21.304Z,604.00
2017-10-10T07:09:21.296Z,588.00
2017-10-10T07:10:21.294Z,588.00
2017-10-10T07:11:21.291Z,616.00
2017-10-10T07:12:21.291Z,828.00
2017-10-10T07:13:21.285Z,888.00
2017-10-10T07:14:21.282Z,1072.00
2017-10-10T07:15:21.280Z,1088.00
2017-10-10T07:16:21.275Z,1204.00
2017-10-10T07:17:21.277Z,1164.00
2017-10-10T07:18:21.275Z,1128.00
2017-10-10T07:19:21.272Z,1268.00
2017-10-10T07:20:21.286Z,1208.00
2017-10-10T07:21:21.266Z,1348.00
2017-10-10T07:22:21.268Z,1160.00
2017-10-10T07:23:21.261Z,972.00
2017-10-10T07:24:21.258Z,1024.00
2017-10-10T07:25:21.250Z,656.00
2017-10-10T07:26:21.249Z,680.00
2017-10-10T07:27:21.248Z,880.00
2017-10-10T07:28:21.243Z,892.00
2017-10-10T07:29:21.238Z,772.00
2017-10-10T07:30:21.237Z,660.00
2017-10-10T07:31:21.234Z,820.00
2017-10-10T07:32:21.231Z,1144.00
2017-10-10T07:33:21.232Z,1456.00
2017-10-10T07:34:21.230Z,1976.00
2017-10-10T07:35:21.233Z,2036.00
2017-10-10T07:36:21.223Z,2080.00
2017-10-10T07:37:21.222Z,2260.00
2017-10-10T07:38:21.220Z,2420.00
2017-10-10T07:39:21.217Z,2472.00
2017-10-10T07:40:21.214Z,2408.00
2017-10-10T07:41:21.207Z,3008.00
2017-10-10T07:42:21.205Z,2920.00
2017-10-10T07:43:21.202Z,2884.00
2017-10-10T07:44:21.198Z,2508.00
2017-10-10T07:45:21.197Z,2848.00
2017-10-10T07:46:21.194Z,2776.00
2017-10-10T07:47:21.191Z,2784.00
2017-10-10T07:48:21.189Z,2800.00
2017-10-10T07:49:21.190Z,2316.00
2017-10-10T07:50:21.189Z,2296.00
2017-10-10T07:51:21.186Z,1700.00
2017-10-10T07:52:21.185Z,1824.00
2017-10-10T07:53:21.181Z,2492.00
2017-10-10T07:54:21.178Z,3220.00
2017-10-10T07:55:21.176Z,3712.00
2017-10-10T07:56:21.173Z,3188.00
2017-10-10T07:57:21.168Z,3184.00
2017-10-10T07:58:21.165Z,3212.00
2017-10-10T07:59:21.164Z,3192.00
2017-10-10T08:00:21.159Z,3080.00
2017-10-10T08:01:21.159Z,3540.00
2017-10-10T08:02:21.156Z,3276.00
2017-10-10T08:03:21.154Z,3064.00
2017-10-10T08:04:21.151Z,3320.00
2017-10-10T08:05:21.164Z,3024.00
2017-10-10T08:06:21.154Z,3416.00
2017-10-10T08:07:21.150Z,3016.00
2017-10-10T08:08:21.148Z,3264.00
2017-10-10T08:09:21.149Z,3700.00
2017-10-10T08:10:21.146Z,3792.00
2017-10-10T08:11:21.143Z,3260.00
2017-10-10T08:12:21.141Z,3392.00
2017-10-10T08:13:21.134Z,2796.00
2017-10-10T08:14:21.149Z,1880.00
2017-10-10T08:15:21.130Z,1396.00
2017-10-10T08:16:21.130Z,1424.00
2017-10-10T08:17:21.128Z,1096.00
2017-10-10T08:18:21.126Z,1164.00
2017-10-10T08:19:21.125Z,1528.00
2017-10-10T08:20:21.122Z,1648.00
2017-10-10T08:21:21.125Z,1760.00
2017-10-10T08:22:21.123Z,1432.00
2017-10-10T08:23:21.122Z,1472.00
2017-10-10T08:24:21.119Z,1940.00
2017-10-10T08:25:21.118Z,2100.00
2017-10-10T08:26:21.116Z,2304.00
2017-10-10T08:27:21.119Z,2796.00
2017-10-10T08:28:21.112Z,3728.00
2017-10-10T08:29:21.105Z,5116.00
2017-10-10T08:30:21.106Z,5596.00
2017-10-10T08:31:21.104Z,5076.00
2017-10-10T08:32:21.102Z,6192.00
2017-10-10T08:33:21.100Z,6204.00
2017-10-10T08:34:21.097Z,6092.00
2017-10-10T08:35:21.096Z,5932.00
2017-10-10T08:36:21.095Z,5908.00
2017-10-10T08:37:21.097Z,6340.00
2017-10-10T08:38:21.095Z,5840.00
2017-10-10T08:39:21.095Z,4900.00
2017-10-10T08:40:21.093Z,4956.00
2017-10-10T08:41:21.091Z,6864.00
2017-10-10T08:42:21.091Z,6244.00
2017-10-10T08:43:21.088Z,5408.00
2017-10-10T08:44:21.088Z,4296.00
2017-10-10T08:45:21.081Z,3852.00
2017-10-10T08:46:21.082Z,3764.00
2017-10-10T08:47:21.080Z,3580.00
2017-10-10T08:48:21.077Z,4192.00
2017-10-10T08:49:21.082Z,5100.00
2017-10-10T08:50:21.081Z,5996.00
2017-10-10T08:51:21.081Z,6636.00
2017-10-10T08:52:21.079Z,6984.00
2017-10-10T08:53:21.080Z,6708.00
2017-10-10T08:54:21.072Z,6952.00
2017-10-10T08:55:21.072Z,7428.00
2017-10-10T08:56:21.071Z,7840.00
2017-10-10T08:57:21.069Z,8264.00
2017-10-10T08:58:21.069Z,8732.00
2017-10-10T08:59:21.067Z,7528.00
2017-10-10T09:00:21.068Z,6512.00
2017-10-10T09:01:21.072Z,5932.00
2017-10-10T09:02:21.070Z,4980.00
2017-10-10T09:03:21.069Z,3616.00
2017-10-10T09:04:21.069Z,3068.00
2017-10-10T09:05:21.068Z,2652.00
2017-10-10T09:06:21.069Z,2836.00
2017-10-10T09:07:21.067Z,2416.00
2017-10-10T09:08:21.065Z,2116.00
2017-10-10T09:09:21.063Z,2232.00
2017-10-10T09:10:21.074Z,2344.00
2017-10-10T09:11:21.061Z,2304.00
2017-10-10T09:12:21.060Z,1964.00
2017-10-10T09:13:21.064Z,2232.00
2017-10-10T09:14:21.059Z,3308.00
2017-10-10T09:15:21.059Z,4044.00
2017-10-10T09:16:21.059Z,4128.00
2017-10-10T09:17:21.062Z,4612.00
2017-10-10T09:18:21.060Z,3600.00
2017-10-10T09:19:21.063Z,6064.00
2017-10-10T09:20:21.069Z,6816.00
2017-10-10T09:21:21.064Z,5716.00
2017-10-10T09:22:21.059Z,5104.00
2017-10-10T09:23:21.059Z,4984.00
2017-10-10T09:24:21.057Z,5468.00
2017-10-10T09:25:21.052Z,5476.00
2017-10-10T09:26:21.052Z,5256.00
2017-10-10T09:27:21.051Z,5908.00
2017-10-10T09:28:21.051Z,4536.00
2017-10-10T09:29:21.049Z,6844.00
2017-10-10T09:30:21.049Z,6004.00
2017-10-10T09:31:21.049Z,8220.00
2017-10-10T09:32:21.048Z,8304.00
2017-10-10T09:33:21.051Z,12884.00
2017-10-10T09:34:21.050Z,10644.00
2017-10-10T09:35:21.051Z,11676.00
2017-10-10T09:36:21.050Z,11768.00
2017-10-10T09:37:21.048Z,9860.00
2017-10-10T09:38:21.050Z,8032.00
2017-10-10T09:39:21.049Z,10160.00
2017-10-10T09:40:21.049Z,11368.00
2017-10-10T09:41:21.045Z,10788.00
2017-10-10T09:42:21.048Z,9704.00
2017-10-10T09:43:21.046Z,8924.00
2017-10-10T09:44:21.044Z,8372.00
2017-10-10T09:45:21.046Z,11184.00
2017-10-10T09:46:21.051Z,10664.00
2017-10-10T09:47:21.047Z,9156.00
2017-10-10T09:48:21.048Z,8852.00
2017-10-10T09:49:21.053Z,9216.00
2017-10-10T09:50:21.054Z,9500.00
2017-10-10T09:51:21.055Z,8488.00
2017-10-10T09:52:21.056Z,8504.00
2017-10-10T09:53:21.052Z,7828.00
2017-10-10T09:54:21.053Z,7828.00
2017-10-10T09:55:21.055Z,10636.00
2017-10-10T09:56:21.055Z,13176.00
2017-10-10T09:57:21.065Z,13232.00
2017-10-10T09:58:21.062Z,9028.00
2017-10-10T09:59:21.062Z,9048.00
2017-10-10T10:00:21.064Z,9380.00
2017-10-10T10:01:21.067Z,9084.00
2017-10-10T10:02:21.067Z,8472.00
2017-10-10T10:03:21.068Z,7828.00
2017-10-10T10:04:21.069Z,6860.00
2017-10-10T10:05:21.066Z,9540.00
2017-10-10T10:06:21.067Z,8772.00
2017-10-10T10:07:21.068Z,8288.00
2017-10-10T10:08:21.069Z,10004.00
2017-10-10T10:09:21.071Z,10824.00
2017-10-10T10:10:21.075Z,10960.00
2017-10-10T10:11:21.078Z,13640.00
2017-10-10T10:12:21.075Z,11084.00
2017-10-10T10:13:21.082Z,11780.00
2017-10-10T10:14:21.083Z,15172.00
2017-10-10T10:15:21.089Z,12728.00
2017-10-10T10:16:21.085Z,12296.00
2017-10-10T10:17:21.086Z,10740.00
2017-10-10T10:18:21.089Z,8548.00
2017-10-10T10:19:21.091Z,7420.00
2017-10-10T10:20:21.096Z,5092.00
2017-10-10T10:21:21.092Z,3280.00
2017-10-10T10:22:21.092Z,2352.00
2017-10-10T10:23:21.095Z,1960.00
2017-10-10T10:24:21.096Z,1764.00
2017-10-10T10:25:21.097Z,1932.00
2017-10-10T10:26:21.100Z,2064.00
2017-10-10T10:27:21.102Z,2568.00
2017-10-10T10:28:21.103Z,3836.00
2017-10-10T10:29:21.109Z,4852.00
2017-10-10T10:30:21.121Z,4592.00
2017-10-10T10:31:21.112Z,4300.00
2017-10-10T10:32:21.118Z,4504.00
2017-10-10T10:33:21.115Z,5308.00
2017-10-10T10:34:21.115Z,6700.00
2017-10-10T10:35:21.117Z,7656.00
2017-10-10T10:36:21.117Z,8780.00
2017-10-10T10:37:21.115Z,7728.00
2017-10-10T10:38:21.114Z,6184.00
2017-10-10T10:39:21.116Z,4948.00
2017-10-10T10:40:21.116Z,4184.00
2017-10-10T10:41:21.117Z,3696.00
2017-10-10T10:42:21.118Z,3592.00
2017-10-10T10:43:21.119Z,3576.00
2017-10-10T10:44:21.118Z,3600.00
2017-10-10T10:45:21.124Z,3752.00
2017-10-10T10:46:21.127Z,3624.00
2017-10-10T10:47:21.126Z,4488.00
2017-10-10T10:48:21.127Z,5076.00
2017-10-10T10:49:21.127Z,5580.00
2017-10-10T10:50:21.126Z,5544.00
2017-10-10T10:51:21.127Z,5816.00
2017-10-10T10:52:21.127Z,4840.00
2017-10-10T10:53:21.124Z,5708.00
2017-10-10T10:54:21.125Z,4948.00
2017-10-10T10:55:21.124Z,4304.00
2017-10-10T10:56:21.124Z,3976.00
2017-10-10T10:57:21.129Z,3648.00
2017-10-10T10:58:21.130Z,3660.00
2017-10-10T10:59:21.130Z,3428.00
2017-10-10T11:00:21.130Z,3240.00
2017-10-10T11:01:21.126Z,2532.00
2017-10-10T11:02:21.128Z,2564.00
2017-10-10T11:03:21.127Z,2564.00
2017-10-10T11:04:21.127Z,1964.00
2017-10-10T11:05:21.127Z,3004.00
2017-10-10T11:06:21.131Z,2488.00
2017-10-10T11:07:21.128Z,2916.00
2017-10-10T11:08:21.126Z,3064.00
2017-10-10T11:09:21.131Z,2992.00
2017-10-10T11:10:21.131Z,2900.00
2017-10-10T11:11:21.132Z,2796.00
2017-10-10T11:12:21.132Z,2508.00
2017-10-10T11:13:21.129Z,2404.00
2017-10-10T11:14:21.132Z,2620.00
2017-10-10T11:15:21.132Z,3388.00
2017-10-10T11:16:21.160Z,4248.00
2017-10-10T11:17:21.126Z,5392.00
2017-10-10T11:18:21.142Z,6664.00
2017-10-10T11:19:21.126Z,8264.00
2017-10-10T11:20:21.128Z,9480.00
2017-10-10T11:21:21.125Z,10108.00
2017-10-10T11:22:21.125Z,9236.00
2017-10-10T11:23:21.123Z,9116.00
2017-10-10T11:24:21.125Z,9380.00
2017-10-10T11:25:21.128Z,9504.00
2017-10-10T11:26:21.127Z,8248.00
2017-10-10T11:27:21.130Z,6288.00
2017-10-10T11:28:21.127Z,5816.00
2017-10-10T11:29:21.129Z,6840.00
2017-10-10T11:30:21.128Z,5960.00
2017-10-10T11:31:21.134Z,5312.00
2017-10-10T11:32:21.130Z,5156.00
2017-10-10T11:33:21.125Z,5328.00
2017-10-10T11:34:21.126Z,4952.00
2017-10-10T11:35:21.126Z,6304.00
2017-10-10T11:36:21.127Z,6568.00
2017-10-10T11:37:21.127Z,7404.00
2017-10-10T11:38:21.128Z,7748.00
2017-10-10T11:39:21.128Z,7588.00
2017-10-10T11:40:21.128Z,5340.00
2017-10-10T11:41:21.133Z,5956.00
2017-10-10T11:42:21.133Z,7936.00
2017-10-10T11:43:21.134Z,8348.00
2017-10-10T11:44:21.135Z,9104.00
2017-10-10T11:45:21.141Z,9384.00
2017-10-10T11:46:21.136Z,9048.00
2017-10-10T11:47:21.138Z,8036.00
2017-10-10T11:48:21.137Z,8072.00
2017-10-10T11:49:21.133Z,7316.00
2017-10-10T11:50:21.135Z,8124.00
2017-10-10T11:51:21.136Z,9236.00
2017-10-10T11:52:21.136Z,8168.00
2017-10-10T11:53:21.137Z,7572.00
2017-10-10T11:54:21.138Z,5676.00
2017-10-10T11:55:21.139Z,5584.00
2017-10-10T11:56:21.140Z,7780.00
2017-10-10T11:57:21.144Z,5076.00
2017-10-10T11:58:21.147Z,5776.00
2017-10-10T11:59:21.147Z,5548.00
2017-10-10T12:00:21.147Z,5144.00
2017-10-10T12:01:21.148Z,5452.00
2017-10-10T12:02:21.148Z,7672.00
2017-10-10T12:03:21.151Z,5920.00
2017-10-10T12:04:21.151Z,5260.00
2017-10-10T12:05:21.147Z,4476.00
2017-10-10T12:06:21.149Z,4820.00
2017-10-10T12:07:21.149Z,5508.00
2017-10-10T12:08:21.150Z,4840.00
2017-10-10T12:09:21.150Z,4728.00
2017-10-10T12:10:21.151Z,4196.00
2017-10-10T12:11:21.153Z,3872.00
2017-10-10T12:12:21.152Z,3472.00
2017-10-10T12:13:21.158Z,4640.00
2017-10-10T12:14:21.158Z,4636.00
2017-10-10T12:15:21.177Z,4496.00
2017-10-10T12:16:21.159Z,4112.00
2017-10-10T12:17:21.160Z,4188.00
2017-10-10T12:18:21.161Z,4400.00
2017-10-10T12:19:21.161Z,3656.00
2017-10-10T12:20:21.170Z,4732.00
2017-10-10T12:21:21.164Z,4200.00
2017-10-10T12:22:21.161Z,4132.00
2017-10-10T12:23:21.160Z,4468.00
2017-10-10T12:24:21.159Z,4356.00
2017-10-10T12:25:21.160Z,4608.00
2017-10-10T12:26:21.159Z,3604.00
2017-10-10T12:27:21.160Z,4392.00
2017-10-10T12:28:21.166Z,4856.00
2017-10-10T12:29:21.165Z,4988.00
2017-10-10T12:30:21.165Z,4816.00
2017-10-10T12:31:21.167Z,4512.00
2017-10-10T12:32:21.167Z,4288.00
2017-10-10T12:33:21.167Z,3884.00
2017-10-10T12:34:21.167Z,3832.00
2017-10-10T12:35:21.169Z,4132.00
2017-10-10T12:36:21.166Z,4412.00
2017-10-10T12:37:21.168Z,4576.00
2017-10-10T12:38:21.164Z,5104.00
2017-10-10T12:39:21.164Z,5916.00